sensor_id;sensor_type;location;lat;lon;timestamp;pressure;altitude;pressure_sealevel;temperature;humidity
36932;BME280;22847;42.654;23.370;2023-03-04T00:00:17;94712.59;;;9.13;76.37
36932;BME280;22847;42.654;23.370;2023-03-04T00:02:43;94715.03;;;9.14;76.99
36932;BME280;22847;42.654;23.370;2023-03-04T00:05:08;94721.75;;;9.17;76.68
36932;BME280;22847;42.654;23.370;2023-03-04T00:07:33;94716.97;;;9.22;76.54
36932;BME280;22847;42.654;23.370;2023-03-04T00:09:59;94715.03;;;9.24;76.48
36932;BME280;22847;42.654;23.370;2023-03-04T00:12:24;94707.13;;;9.25;77.10
36932;BME280;22847;42.654;23.370;2023-03-04T00:14:50;94709.59;;;9.27;77.08
36932;BME280;22847;42.654;23.370;2023-03-04T00:17:15;94702.63;;;9.27;77.94
36932;BME280;22847;42.654;23.370;2023-03-04T00:19:40;94702.63;;;9.27;77.80
36932;BME280;22847;42.654;23.370;2023-03-04T00:22:06;94698.22;;;9.37;78.39
36932;BME280;22847;42.654;23.370;2023-03-04T00:24:31;94703.56;;;9.26;77.36
36932;BME280;22847;42.654;23.370;2023-03-04T00:26:56;94692.59;;;9.32;77.74
36932;BME280;22847;42.654;23.370;2023-03-04T00:29:22;94706.84;;;9.09;77.79
36932;BME280;22847;42.654;23.370;2023-03-04T00:31:47;94697.41;;;9.18;77.69
36932;BME280;22847;42.654;23.370;2023-03-04T00:34:12;94696.84;;;9.24;76.94
36932;BME280;22847;42.654;23.370;2023-03-04T00:36:37;94701.03;;;8.96;78.09
36932;BME280;22847;42.654;23.370;2023-03-04T00:39:03;94696.66;;;8.96;77.37
36932;BME280;22847;42.654;23.370;2023-03-04T00:41:28;94693.66;;;9.01;77.31
36932;BME280;22847;42.654;23.370;2023-03-04T00:43:53;94701.34;;;9.03;77.15
36932;BME280;22847;42.654;23.370;2023-03-04T00:46:19;94703.53;;;9.07;76.76
36932;BME280;22847;42.654;23.370;2023-03-04T00:48:44;94695.88;;;9.15;76.50
36932;BME280;22847;42.654;23.370;2023-03-04T00:51:09;94696.97;;;9.13;76.38
36932;BME280;22847;42.654;23.370;2023-03-04T00:53:34;94690.53;;;9.17;76.35
36932;BME280;22847;42.654;23.370;2023-03-04T00:56:00;94690.25;;;9.20;76.65
36932;BME280;22847;42.654;23.370;2023-03-04T00:58:25;94689.31;;;9.11;76.44
36932;BME280;22847;42.654;23.370;2023-03-04T01:00:50;94692.00;;;8.90;77.97
36932;BME280;22847;42.654;23.370;2023-03-04T01:03:15;94688.75;;;9.08;77.08
36932;BME280;22847;42.654;23.370;2023-03-04T01:05:41;94694.38;;;9.13;76.86
36932;BME280;22847;42.654;23.370;2023-03-04T01:08:06;94693.97;;;9.17;75.88
36932;BME280;22847;42.654;23.370;2023-03-04T01:10:32;94688.22;;;9.23;76.20
36932;BME280;22847;42.654;23.370;2023-03-04T01:12:57;94695.88;;;9.25;75.95
36932;BME280;22847;42.654;23.370;2023-03-04T01:15:22;94692.63;;;9.23;75.93
36932;BME280;22847;42.654;23.370;2023-03-04T01:17:48;94686.31;;;9.25;76.24
36932;BME280;22847;42.654;23.370;2023-03-04T01:20:13;94685.75;;;9.22;76.15
36932;BME280;22847;42.654;23.370;2023-03-04T01:22:38;94677.00;;;9.23;76.64
36932;BME280;22847;42.654;23.370;2023-03-04T01:25:04;94678.88;;;8.92;77.91
36932;BME280;22847;42.654;23.370;2023-03-04T01:27:29;94676.63;;;8.68;77.85
36932;BME280;22847;42.654;23.370;2023-03-04T01:29:55;94671.78;;;9.04;76.97
36932;BME280;22847;42.654;23.370;2023-03-04T01:32:20;94663.97;;;9.04;77.48
36932;BME280;22847;42.654;23.370;2023-03-04T01:34:45;94669.03;;;9.15;76.48
36932;BME280;22847;42.654;23.370;2023-03-04T01:37:11;94664.25;;;9.20;76.48
36932;BME280;22847;42.654;23.370;2023-03-04T01:39:37;94660.81;;;9.19;76.09
36932;BME280;22847;42.654;23.370;2023-03-04T01:42:03;94662.59;;;9.19;76.72
36932;BME280;22847;42.654;23.370;2023-03-04T01:44:29;94655.22;;;9.24;76.73
36932;BME280;22847;42.654;23.370;2023-03-04T01:46:54;94655.38;;;9.22;76.01
36932;BME280;22847;42.654;23.370;2023-03-04T01:49:19;94658.22;;;9.29;76.88
36932;BME280;22847;42.654;23.370;2023-03-04T01:51:52;94653.72;;;9.31;75.77
36932;BME280;22847;42.654;23.370;2023-03-04T01:54:18;94661.00;;;9.27;75.66
36932;BME280;22847;42.654;23.370;2023-03-04T01:56:44;94649.88;;;9.25;74.90
36932;BME280;22847;42.654;23.370;2023-03-04T02:01:35;94640.00;;;9.29;74.24
36932;BME280;22847;42.654;23.370;2023-03-04T02:04:01;94647.28;;;9.25;74.33
36932;BME280;22847;42.654;23.370;2023-03-04T02:06:26;94648.63;;;9.20;74.72
36932;BME280;22847;42.654;23.370;2023-03-04T02:08:52;94640.59;;;9.23;74.52
36932;BME280;22847;42.654;23.370;2023-03-04T02:11:17;94650.41;;;9.10;74.46
36932;BME280;22847;42.654;23.370;2023-03-04T02:13:42;94648.78;;;9.18;73.92
36932;BME280;22847;42.654;23.370;2023-03-04T02:16:08;94641.66;;;9.20;73.57
36932;BME280;22847;42.654;23.370;2023-03-04T02:18:33;94647.56;;;9.22;73.37
36932;BME280;22847;42.654;23.370;2023-03-04T02:26:16;94646.03;;;8.91;75.19
36932;BME280;22847;42.654;23.370;2023-03-04T02:28:42;94637.97;;;9.13;74.54
36932;BME280;22847;42.654;23.370;2023-03-04T02:31:19;94645.09;;;9.11;75.03
36932;BME280;22847;42.654;23.370;2023-03-04T02:33:46;94643.84;;;9.06;74.14
36932;BME280;22847;42.654;23.370;2023-03-04T02:36:11;94639.06;;;9.11;74.14
36932;BME280;22847;42.654;23.370;2023-03-04T02:38:36;94645.34;;;8.99;74.49
36932;BME280;22847;42.654;23.370;2023-03-04T02:41:02;94639.47;;;9.06;73.70
36932;BME280;22847;42.654;23.370;2023-03-04T02:43:28;94628.81;;;9.09;73.32
36932;BME280;22847;42.654;23.370;2023-03-04T02:45:54;94630.19;;;9.13;73.30
36932;BME280;22847;42.654;23.370;2023-03-04T02:48:20;94624.00;;;9.14;74.35
36932;BME280;22847;42.654;23.370;2023-03-04T02:50:47;94630.31;;;9.12;73.46
36932;BME280;22847;42.654;23.370;2023-03-04T02:53:13;94631.78;;;9.14;74.45
36932;BME280;22847;42.654;23.370;2023-03-04T02:55:39;94626.59;;;9.14;74.25
36932;BME280;22847;42.654;23.370;2023-03-04T02:58:06;94631.13;;;9.12;74.07
36932;BME280;22847;42.654;23.370;2023-03-04T03:00:31;94630.31;;;9.12;73.62
36932;BME280;22847;42.654;23.370;2023-03-04T03:02:57;94629.06;;;9.06;73.31
36932;BME280;22847;42.654;23.370;2023-03-04T03:05:23;94630.72;;;9.07;73.09
36932;BME280;22847;42.654;23.370;2023-03-04T03:07:48;94629.06;;;9.16;72.98
36932;BME280;22847;42.654;23.370;2023-03-04T03:10:14;94629.91;;;9.16;73.13
36932;BME280;22847;42.654;23.370;2023-03-04T03:12:39;94628.00;;;9.18;72.70
36932;BME280;22847;42.654;23.370;2023-03-04T03:15:04;94633.19;;;9.18;72.94
36932;BME280;22847;42.654;23.370;2023-03-04T03:17:30;94629.91;;;9.16;72.98
36932;BME280;22847;42.654;23.370;2023-03-04T03:19:55;94632.63;;;9.15;72.78
36932;BME280;22847;42.654;23.370;2023-03-04T03:22:20;94629.75;;;9.18;72.40
36932;BME280;22847;42.654;23.370;2023-03-04T03:24:46;94635.09;;;9.16;72.71
36932;BME280;22847;42.654;23.370;2023-03-04T03:27:11;94636.19;;;9.14;73.44
36932;BME280;22847;42.654;23.370;2023-03-04T03:29:36;94630.19;;;9.13;73.06
36932;BME280;22847;42.654;23.370;2023-03-04T03:32:01;94628.81;;;9.09;72.69
36932;BME280;22847;42.654;23.370;2023-03-04T03:34:27;94626.75;;;9.13;72.46
36932;BME280;22847;42.654;23.370;2023-03-04T03:36:52;94620.44;;;9.15;72.64
36932;BME280;22847;42.654;23.370;2023-03-04T03:39:18;94617.41;;;9.10;72.62
36932;BME280;22847;42.654;23.370;2023-03-04T03:41:43;94618.00;;;9.04;72.76
36932;BME280;22847;42.654;23.370;2023-03-04T03:44:08;94624.81;;;9.05;72.65
36932;BME280;22847;42.654;23.370;2023-03-04T03:46:34;94617.56;;;8.99;72.92
36932;BME280;22847;42.654;23.370;2023-03-04T03:48:59;94609.63;;;8.91;73.02
36932;BME280;22847;42.654;23.370;2023-03-04T03:51:25;94612.38;;;8.89;73.02
36932;BME280;22847;42.654;23.370;2023-03-04T03:53:50;94614.13;;;8.89;72.57
36932;BME280;22847;42.654;23.370;2023-03-04T03:56:15;94605.78;;;8.85;72.85
36932;BME280;22847;42.654;23.370;2023-03-04T03:58:40;94606.88;;;8.83;73.01
36932;BME280;22847;42.654;23.370;2023-03-04T04:01:06;94609.63;;;8.81;72.68
36932;BME280;22847;42.654;23.370;2023-03-04T04:03:31;94600.56;;;8.76;72.79
36932;BME280;22847;42.654;23.370;2023-03-04T04:05:56;94602.75;;;8.71;73.14
36932;BME280;22847;42.654;23.370;2023-03-04T04:08:21;94600.28;;;8.69;73.13
36932;BME280;22847;42.654;23.370;2023-03-04T04:10:47;94604.69;;;8.69;73.29
36932;BME280;22847;42.654;23.370;2023-03-04T04:13:12;94606.88;;;8.64;73.47
36932;BME280;22847;42.654;23.370;2023-03-04T04:15:37;94603.44;;;8.63;73.92
36932;BME280;22847;42.654;23.370;2023-03-04T04:18:03;94607.13;;;8.61;73.55
36932;BME280;22847;42.654;23.370;2023-03-04T04:20:29;94604.66;;;8.59;73.41
36932;BME280;22847;42.654;23.370;2023-03-04T04:22:54;94602.47;;;8.55;73.96
36932;BME280;22847;42.654;23.370;2023-03-04T04:25:20;94609.03;;;8.59;74.22
36932;BME280;22847;42.654;23.370;2023-03-04T04:27:45;94608.34;;;8.57;74.07
36932;BME280;22847;42.654;23.370;2023-03-04T04:30:11;94601.50;;;8.56;74.43
36932;BME280;22847;42.654;23.370;2023-03-04T04:32:36;94599.59;;;8.58;74.16
36932;BME280;22847;42.654;23.370;2023-03-04T04:35:01;94610.00;;;8.58;74.18
36932;BME280;22847;42.654;23.370;2023-03-04T04:37:27;94610.81;;;8.58;73.92
36932;BME280;22847;42.654;23.370;2023-03-04T04:39:52;94610.81;;;8.58;73.87
36932;BME280;22847;42.654;23.370;2023-03-04T04:42:19;94603.84;;;8.59;74.37
36932;BME280;22847;42.654;23.370;2023-03-04T04:44:44;94597.69;;;8.60;74.72
36932;BME280;22847;42.654;23.370;2023-03-04T04:47:10;94596.72;;;8.61;73.87
36932;BME280;22847;42.654;23.370;2023-03-04T04:49:35;94600.13;;;8.61;73.27
36932;BME280;22847;42.654;23.370;2023-03-04T04:52:00;94608.50;;;8.55;72.51
36932;BME280;22847;42.654;23.370;2023-03-04T04:54:26;94609.28;;;8.46;72.82
36932;BME280;22847;42.654;23.370;2023-03-04T04:56:51;94611.72;;;8.38;73.03
36932;BME280;22847;42.654;23.370;2023-03-04T04:59:16;94608.84;;;8.31;72.87
36932;BME280;22847;42.654;23.370;2023-03-04T05:01:41;94610.91;;;8.37;73.11
36932;BME280;22847;42.654;23.370;2023-03-04T05:04:07;94617.47;;;8.11;74.35
36932;BME280;22847;42.654;23.370;2023-03-04T05:06:32;94617.13;;;7.65;75.39
36932;BME280;22847;42.654;23.370;2023-03-04T05:08:57;94629.78;;;7.79;75.33
36932;BME280;22847;42.654;23.370;2023-03-04T05:11:22;94631.94;;;8.04;74.02
36932;BME280;22847;42.654;23.370;2023-03-04T05:13:48;94620.06;;;8.11;73.00
36932;BME280;22847;42.654;23.370;2023-03-04T05:16:14;94629.00;;;8.18;73.19
36932;BME280;22847;42.654;23.370;2023-03-04T05:18:39;94624.63;;;8.19;73.00
36932;BME280;22847;42.654;23.370;2023-03-04T05:21:04;94629.16;;;8.26;73.06
36932;BME280;22847;42.654;23.370;2023-03-04T05:23:32;94625.25;;;8.32;73.33
36932;BME280;22847;42.654;23.370;2023-03-04T05:25:58;94633.03;;;8.32;73.60
36932;BME280;22847;42.654;23.370;2023-03-04T05:28:23;94640.44;;;8.36;73.61
36932;BME280;22847;42.654;23.370;2023-03-04T05:30:48;94638.50;;;8.38;73.02
36932;BME280;22847;42.654;23.370;2023-03-04T05:33:15;94640.16;;;8.39;73.17
36932;BME280;22847;42.654;23.370;2023-03-04T05:35:41;94648.78;;;8.40;71.97
36932;BME280;22847;42.654;23.370;2023-03-04T05:38:08;94638.50;;;8.38;72.63
36932;BME280;22847;42.654;23.370;2023-03-04T05:40:33;94641.00;;;8.40;71.67
36932;BME280;22847;42.654;23.370;2023-03-04T05:42:59;94645.25;;;8.41;71.95
36932;BME280;22847;42.654;23.370;2023-03-04T05:45:24;94652.75;;;8.44;72.13
36932;BME280;22847;42.654;23.370;2023-03-04T05:47:50;94650.16;;;8.44;72.54
36932;BME280;22847;42.654;23.370;2023-03-04T05:50:16;94648.81;;;8.49;72.23
36932;BME280;22847;42.654;23.370;2023-03-04T05:52:41;94650.00;;;8.36;71.22
36932;BME280;22847;42.654;23.370;2023-03-04T05:55:06;94656.47;;;8.51;70.92
36932;BME280;22847;42.654;23.370;2023-03-04T05:57:32;94651.13;;;8.52;70.55
36932;BME280;22847;42.654;23.370;2023-03-04T05:59:57;94651.13;;;8.52;70.76
36932;BME280;22847;42.654;23.370;2023-03-04T06:02:22;94651.56;;;8.58;70.36
36932;BME280;22847;42.654;23.370;2023-03-04T06:04:48;94658.94;;;8.52;70.49
36932;BME280;22847;42.654;23.370;2023-03-04T06:07:13;94660.06;;;8.60;71.38
36932;BME280;22847;42.654;23.370;2023-03-04T06:09:38;94660.47;;;8.55;70.35
36932;BME280;22847;42.654;23.370;2023-03-04T06:12:04;94662.91;;;8.57;70.41
36932;BME280;22847;42.654;23.370;2023-03-04T06:14:29;94663.34;;;8.62;70.93
36932;BME280;22847;42.654;23.370;2023-03-04T06:16:54;94664.84;;;8.55;71.82
36932;BME280;22847;42.654;23.370;2023-03-04T06:19:20;94670.06;;;8.64;71.00
36932;BME280;22847;42.654;23.370;2023-03-04T06:21:45;94671.28;;;8.70;71.58
36932;BME280;22847;42.654;23.370;2023-03-04T06:24:10;94664.34;;;8.80;71.32
36932;BME280;22847;42.654;23.370;2023-03-04T06:26:36;94663.81;;;8.86;70.91
36932;BME280;22847;42.654;23.370;2023-03-04T06:29:01;94673.66;;;8.92;71.49
36932;BME280;22847;42.654;23.370;2023-03-04T06:31:26;94670.66;;;8.96;71.95
36932;BME280;22847;42.654;23.370;2023-03-04T06:33:51;94667.66;;;9.01;72.40
36932;BME280;22847;42.654;23.370;2023-03-04T06:36:17;94671.63;;;9.05;72.19
36932;BME280;22847;42.654;23.370;2023-03-04T06:38:42;94668.91;;;9.07;70.70
36932;BME280;22847;42.654;23.370;2023-03-04T06:41:11;94672.84;;;9.01;70.84
36932;BME280;22847;42.654;23.370;2023-03-04T06:43:36;94664.13;;;9.12;70.21
36932;BME280;22847;42.654;23.370;2023-03-04T06:46:01;94675.88;;;9.06;71.05
36932;BME280;22847;42.654;23.370;2023-03-04T06:48:27;94681.22;;;9.14;70.26
36932;BME280;22847;42.654;23.370;2023-03-04T06:50:52;94682.31;;;9.02;69.82
36932;BME280;22847;42.654;23.370;2023-03-04T06:53:17;94686.81;;;8.20;71.51
36932;BME280;22847;42.654;23.370;2023-03-04T06:55:43;94690.75;;;8.35;71.51
36932;BME280;22847;42.654;23.370;2023-03-04T06:58:08;94689.44;;;7.99;72.27
36932;BME280;22847;42.654;23.370;2023-03-04T07:00:33;94685.13;;;8.10;72.85
36932;BME280;22847;42.654;23.370;2023-03-04T07:02:59;94690.53;;;7.55;74.06
36932;BME280;22847;42.654;23.370;2023-03-04T07:05:24;94692.16;;;7.04;76.80
36932;BME280;22847;42.654;23.370;2023-03-04T07:07:50;94693.13;;;7.76;75.37
36932;BME280;22847;42.654;23.370;2023-03-04T07:10:16;94692.31;;;7.76;74.32
36932;BME280;22847;42.654;23.370;2023-03-04T07:12:41;94691.09;;;8.00;73.34
36932;BME280;22847;42.654;23.370;2023-03-04T07:15:07;94702.03;;;8.04;73.49
36932;BME280;22847;42.654;23.370;2023-03-04T07:17:33;94695.19;;;8.03;73.17
36932;BME280;22847;42.654;23.370;2023-03-04T07:19:58;94698.78;;;7.81;74.24
36932;BME280;22847;42.654;23.370;2023-03-04T07:22:24;94698.44;;;7.33;76.81
36932;BME280;22847;42.654;23.370;2023-03-04T07:25:45;94695.34;;;7.81;74.58
36932;BME280;22847;42.654;23.370;2023-03-04T07:28:11;94695.22;;;7.82;74.25
36932;BME280;22847;42.654;23.370;2023-03-04T07:30:36;94711.41;;;8.16;73.17
36932;BME280;22847;42.654;23.370;2023-03-04T07:33:02;94707.78;;;8.28;72.57
36932;BME280;22847;42.654;23.370;2023-03-04T07:35:27;94578.16;;;7.55;71.93
36932;BME280;22847;42.654;23.370;2023-03-04T07:37:53;94685.47;;;7.75;74.13
36932;BME280;22847;42.654;23.370;2023-03-04T07:40:19;94684.31;;;8.09;73.13
36932;BME280;22847;42.654;23.370;2023-03-04T07:42:51;94711.44;;;8.46;72.81
36932;BME280;22847;42.654;23.370;2023-03-04T07:45:18;94641.53;;;8.13;71.95
36932;BME280;22847;42.654;23.370;2023-03-04T07:47:43;94667.84;;;8.50;71.88
36932;BME280;22847;42.654;23.370;2023-03-04T07:50:10;94708.38;;;8.72;71.17
36932;BME280;22847;42.654;23.370;2023-03-04T07:52:39;94690.31;;;8.70;71.58
36932;BME280;22847;42.654;23.370;2023-03-04T07:55:06;94697.69;;;8.65;72.21
36932;BME280;22847;42.654;23.370;2023-03-04T07:57:31;94503.75;;;7.55;71.44
36932;BME280;22847;42.654;23.370;2023-03-04T07:59:57;94700.75;;;8.80;72.72
36932;BME280;22847;42.654;23.370;2023-03-04T08:02:22;94691.03;;;8.82;71.15
36932;BME280;22847;42.654;23.370;2023-03-04T08:04:48;94500.44;;;7.53;71.28
36932;BME280;22847;42.654;23.370;2023-03-04T08:07:13;94675.81;;;8.68;71.40
36932;BME280;22847;42.654;23.370;2023-03-04T08:09:38;94692.91;;;8.30;72.89
36932;BME280;22847;42.654;23.370;2023-03-04T08:12:04;94720.63;;;8.50;72.63
36932;BME280;22847;42.654;23.370;2023-03-04T08:14:30;94717.25;;;8.60;72.55
36932;BME280;22847;42.654;23.370;2023-03-04T08:16:55;94709.91;;;8.84;72.46
36932;BME280;22847;42.654;23.370;2023-03-04T08:19:21;94499.31;;;7.77;72.12
36932;BME280;22847;42.654;23.370;2023-03-04T08:21:46;94498.13;;;7.90;72.40
36932;BME280;22847;42.654;23.370;2023-03-04T08:24:12;94696.59;;;9.27;70.86
36932;BME280;22847;42.654;23.370;2023-03-04T08:26:40;94663.28;;;9.11;70.80
36932;BME280;22847;42.654;23.370;2023-03-04T08:29:07;94719.44;;;9.43;70.53
36932;BME280;22847;42.654;23.370;2023-03-04T08:31:33;94682.72;;;9.55;70.53
36932;BME280;22847;42.654;23.370;2023-03-04T08:34:00;94534.50;;;8.69;69.94
36932;BME280;22847;42.654;23.370;2023-03-04T08:36:26;94495.22;;;8.52;69.56
36932;BME280;22847;42.654;23.370;2023-03-04T08:38:51;94675.75;;;9.46;69.14
36932;BME280;22847;42.654;23.370;2023-03-04T08:41:17;94519.78;;;8.10;71.24
36932;BME280;22847;42.654;23.370;2023-03-04T08:43:42;94667.41;;;9.43;69.95
36932;BME280;22847;42.654;23.370;2023-03-04T08:46:08;94537.66;;;8.72;69.09
36932;BME280;22847;42.654;23.370;2023-03-04T08:48:33;94660.00;;;9.57;69.02
36932;BME280;22847;42.654;23.370;2023-03-04T08:50:59;94665.19;;;9.67;69.24
36932;BME280;22847;42.654;23.370;2023-03-04T08:53:24;94633.69;;;9.60;70.17
36932;BME280;22847;42.654;23.370;2023-03-04T08:55:51;94467.47;;;8.63;68.61
36932;BME280;22847;42.654;23.370;2023-03-04T08:58:17;94512.44;;;8.92;70.30
36932;BME280;22847;42.654;23.370;2023-03-04T09:00:45;94671.56;;;10.01;69.09
36932;BME280;22847;42.654;23.370;2023-03-04T09:03:13;94661.56;;;10.06;70.37
36932;BME280;22847;42.654;23.370;2023-03-04T09:05:38;94665.72;;;9.90;69.58
36932;BME280;22847;42.654;23.370;2023-03-04T09:08:04;94653.53;;;9.90;69.37
36932;BME280;22847;42.654;23.370;2023-03-04T09:10:30;94672.06;;;10.14;69.28
36932;BME280;22847;42.654;23.370;2023-03-04T09:12:56;94673.72;;;10.25;69.36
36932;BME280;22847;42.654;23.370;2023-03-04T09:15:22;94628.91;;;10.21;68.78
36932;BME280;22847;42.654;23.370;2023-03-04T09:17:47;94641.25;;;10.19;67.24
36932;BME280;22847;42.654;23.370;2023-03-04T09:20:13;94656.53;;;10.32;68.24
36932;BME280;22847;42.654;23.370;2023-03-04T09:22:40;94609.97;;;10.19;68.30
36932;BME280;22847;42.654;23.370;2023-03-04T09:25:06;94653.44;;;10.56;65.24
36932;BME280;22847;42.654;23.370;2023-03-04T09:27:32;94655.38;;;10.26;67.04
36932;BME280;22847;42.654;23.370;2023-03-04T09:29:58;94653.13;;;10.32;68.34
36932;BME280;22847;42.654;23.370;2023-03-04T09:32:23;94393.03;;;8.81;68.15
36932;BME280;22847;42.654;23.370;2023-03-04T09:34:48;94645.22;;;10.51;68.75
36932;BME280;22847;42.654;23.370;2023-03-04T09:37:14;94668.22;;;10.65;70.69
36932;BME280;22847;42.654;23.370;2023-03-04T09:39:39;94483.38;;;9.72;69.54
36932;BME280;22847;42.654;23.370;2023-03-04T09:42:06;94650.00;;;10.55;66.88
36932;BME280;22847;42.654;23.370;2023-03-04T09:44:39;94636.03;;;10.74;66.16
36932;BME280;22847;42.654;23.370;2023-03-04T09:47:11;94444.06;;;9.65;66.94
36932;BME280;22847;42.654;23.370;2023-03-04T09:49:40;94635.88;;;11.03;67.53
36932;BME280;22847;42.654;23.370;2023-03-04T09:52:43;94629.00;;;11.19;67.58
36932;BME280;22847;42.654;23.370;2023-03-04T09:55:36;94474.88;;;10.24;64.75
36932;BME280;22847;42.654;23.370;2023-03-04T09:58:05;94658.91;;;11.43;64.29
36932;BME280;22847;42.654;23.370;2023-03-04T10:00:34;94629.94;;;11.54;65.57
36932;BME280;22847;42.654;23.370;2023-03-04T10:06:01;94620.31;;;11.54;65.28
36932;BME280;22847;42.654;23.370;2023-03-04T10:08:51;94614.00;;;11.39;61.95
36932;BME280;22847;42.654;23.370;2023-03-04T12:37:56;94434.63;;;11.91;62.89
36932;BME280;22847;42.654;23.370;2023-03-04T12:43:17;94456.22;;;12.01;60.84
36932;BME280;22847;42.654;23.370;2023-03-04T12:46:17;94430.22;;;11.58;61.59
36932;BME280;22847;42.654;23.370;2023-03-04T12:57:01;94268.34;;;11.08;60.28
36932;BME280;22847;42.654;23.370;2023-03-04T12:59:34;94375.50;;;11.82;61.68
36932;BME280;22847;42.654;23.370;2023-03-04T13:05:06;94434.88;;;12.14;62.47
36932;BME280;22847;42.654;23.370;2023-03-04T13:10:13;94425.38;;;12.05;59.40
36932;BME280;22847;42.654;23.370;2023-03-04T13:12:53;94399.88;;;12.07;58.98
36932;BME280;22847;42.654;23.370;2023-03-04T13:15:36;94237.47;;;10.95;59.96
36932;BME280;22847;42.654;23.370;2023-03-04T13:18:32;94388.69;;;11.73;59.58
36932;BME280;22847;42.654;23.370;2023-03-04T13:23:47;94358.88;;;11.57;62.64
36932;BME280;22847;42.654;23.370;2023-03-04T13:26:32;94352.41;;;11.70;61.24
36932;BME280;22847;42.654;23.370;2023-03-04T13:32:01;94407.03;;;11.55;60.46
36932;BME280;22847;42.654;23.370;2023-03-04T13:34:47;94380.97;;;11.71;62.26
36932;BME280;22847;42.654;23.370;2023-03-04T13:42:51;94408.38;;;10.38;63.95
36932;BME280;22847;42.654;23.370;2023-03-04T13:47:54;94392.72;;;11.25;62.49
36932;BME280;22847;42.654;23.370;2023-03-04T13:50:45;94365.00;;;11.32;61.51
36932;BME280;22847;42.654;23.370;2023-03-04T13:53:21;94292.81;;;10.81;61.51
36932;BME280;22847;42.654;23.370;2023-03-04T14:04:56;94361.19;;;11.52;61.03
36932;BME280;22847;42.654;23.370;2023-03-04T14:12:24;94353.53;;;11.67;60.71
36932;BME280;22847;42.654;23.370;2023-03-04T14:14:55;94356.41;;;11.82;60.14
36932;BME280;22847;42.654;23.370;2023-03-04T14:17:27;94183.00;;;10.84;60.54
36932;BME280;22847;42.654;23.370;2023-03-04T14:19:54;94343.97;;;11.76;60.22
36932;BME280;22847;42.654;23.370;2023-03-04T14:22:25;93993.84;;;9.81;60.83
36932;BME280;22847;42.654;23.370;2023-03-04T14:25:20;94337.81;;;12.09;59.67
36932;BME280;22847;42.654;23.370;2023-03-04T14:27:46;94143.34;;;10.72;59.67
36932;BME280;22847;42.654;23.370;2023-03-04T14:30:23;94358.72;;;12.01;59.18
36932;BME280;22847;42.654;23.370;2023-03-04T14:32:51;94355.63;;;11.97;59.86
36932;BME280;22847;42.654;23.370;2023-03-04T14:37:53;94287.03;;;11.37;60.68
36932;BME280;22847;42.654;23.370;2023-03-04T14:40:25;94297.47;;;11.37;60.14
36932;BME280;22847;42.654;23.370;2023-03-04T14:42:55;94171.53;;;10.69;60.21
36932;BME280;22847;42.654;23.370;2023-03-04T14:45:22;94187.00;;;10.62;60.60
36932;BME280;22847;42.654;23.370;2023-03-04T14:47:48;94326.94;;;11.63;60.96
36932;BME280;22847;42.654;23.370;2023-03-04T14:50:18;94321.28;;;11.76;60.10
36932;BME280;22847;42.654;23.370;2023-03-04T14:52:49;94270.97;;;10.22;63.68
36932;BME280;22847;42.654;23.370;2023-03-04T14:55:17;94153.81;;;9.87;63.52
36932;BME280;22847;42.654;23.370;2023-03-04T14:57:46;94315.44;;;10.98;62.42
36932;BME280;22847;42.654;23.370;2023-03-04T15:00:33;94329.44;;;10.97;62.55
36932;BME280;22847;42.654;23.370;2023-03-04T15:05:45;94310.03;;;11.26;62.07
36932;BME280;22847;42.654;23.370;2023-03-04T15:08:28;94315.56;;;10.89;62.79
36932;BME280;22847;42.654;23.370;2023-03-04T15:10:58;94309.72;;;10.69;63.99
36932;BME280;22847;42.654;23.370;2023-03-04T15:16:07;94216.19;;;10.40;63.03
36932;BME280;22847;42.654;23.370;2023-03-04T15:18:32;94298.44;;;10.94;62.36
36932;BME280;22847;42.654;23.370;2023-03-04T15:21:00;94287.84;;;11.30;61.80
36932;BME280;22847;42.654;23.370;2023-03-04T15:23:28;94293.34;;;11.27;61.91
36932;BME280;22847;42.654;23.370;2023-03-04T15:26:02;94255.28;;;10.66;62.71
36932;BME280;22847;42.654;23.370;2023-03-04T15:28:33;94077.69;;;9.41;63.16
36932;BME280;22847;42.654;23.370;2023-03-04T15:30:58;94258.31;;;10.53;63.37
36932;BME280;22847;42.654;23.370;2023-03-04T15:33:24;94255.19;;;10.50;63.44
36932;BME280;22847;42.654;23.370;2023-03-04T15:35:58;94119.13;;;9.61;63.85
36932;BME280;22847;42.654;23.370;2023-03-04T15:38:25;94271.44;;;10.69;63.66
36932;BME280;22847;42.654;23.370;2023-03-04T15:40:53;94284.59;;;10.68;64.09
36932;BME280;22847;42.654;23.370;2023-03-04T15:43:20;94274.97;;;10.94;63.78
36932;BME280;22847;42.654;23.370;2023-03-04T15:45:47;94245.16;;;10.97;63.08
36932;BME280;22847;42.654;23.370;2023-03-04T15:48:15;94269.91;;;10.93;62.87
36932;BME280;22847;42.654;23.370;2023-03-04T15:50:43;94265.94;;;11.23;62.42
36932;BME280;22847;42.654;23.370;2023-03-04T15:53:20;94241.50;;;10.82;62.99
36932;BME280;22847;42.654;23.370;2023-03-04T15:55:47;94225.97;;;10.72;63.07
36932;BME280;22847;42.654;23.370;2023-03-04T15:58:14;94278.75;;;11.00;63.22
36932;BME280;22847;42.654;23.370;2023-03-04T16:00:39;94289.22;;;11.08;62.91
36932;BME280;22847;42.654;23.370;2023-03-04T16:03:05;94246.56;;;10.83;62.88
36932;BME280;22847;42.654;23.370;2023-03-04T16:05:34;94199.69;;;10.57;63.24
36932;BME280;22847;42.654;23.370;2023-03-04T16:08:00;94257.22;;;10.98;63.05
36932;BME280;22847;42.654;23.370;2023-03-04T16:10:28;93944.63;;;9.03;62.51
36932;BME280;22847;42.654;23.370;2023-03-04T16:12:55;94078.22;;;9.45;63.64
36932;BME280;22847;42.654;23.370;2023-03-04T16:15:26;94226.03;;;10.54;63.13
36932;BME280;22847;42.654;23.370;2023-03-04T16:17:52;94248.09;;;10.68;63.15
36932;BME280;22847;42.654;23.370;2023-03-04T16:20:23;94273.38;;;10.67;63.64
36932;BME280;22847;42.654;23.370;2023-03-04T16:22:55;94268.94;;;10.60;63.38
36932;BME280;22847;42.654;23.370;2023-03-04T16:25:22;94271.09;;;10.39;64.85
36932;BME280;22847;42.654;23.370;2023-03-04T16:27:50;94265.97;;;10.55;64.29